Time;durP1;ratioP1;P1;durP2;ratioP2;P2;SDS_P1;SDS_P2;PMS_P1;PMS_P2;Temp;Humidity;BMP_temperature;BMP_pressure;BME280_temperature;BME280_humidity;BME280_pressure;Samples;Min_cycle;Max_cycle;Signal;HPM_P1;HPM_P2
2023/04/01 00:01:19;;;;;;;;;;;;;;;22.31;25.25;97104.84;4978219;28;964;-74
2023/04/01 00:03:45;;;;;;;;;;;;;;;22.16;25.44;97109.53;4978014;28;1092;-75
2023/04/01 00:06:14;;;;;;;;;;;;;;;21.99;25.44;97102.56;4961906;28;976;-74
2023/04/01 00:08:40;;;;;;;;;;;;;;;22.02;25.48;97105.25;4977724;28;991;-74
2023/04/01 00:11:05;;;;;;;;;;;;;;;21.78;25.99;97105.03;4945435;28;1344;-74
2023/04/01 00:13:32;;;;;;;;;;;;;;;22.44;25.44;97095.41;4977870;28;1992;-75
2023/04/01 00:15:57;;;;;;;;;;;;;;;22.34;25.09;97098.22;4961593;28;992;-74
2023/04/01 00:18:23;;;;;;;;;;;;;;;22.20;25.55;97098.84;4977770;28;1007;-75
2023/04/01 00:20:49;;;;;;;;;;;;;;;22.16;25.35;97097.41;4961574;28;1370;-74
2023/04/01 00:23:15;;;;;;;;;;;;;;;21.87;26.06;97103.50;4962294;28;1527;-74
2023/04/01 00:25:41;;;;;;;;;;;;;;;21.85;26.03;97087.75;4996016;28;915;-74
2023/04/01 00:28:06;;;;;;;;;;;;;;;22.05;25.75;97087.31;4962624;28;959;-75
2023/04/01 00:30:32;;;;;;;;;;;;;;;22.29;25.62;97092.41;4962447;28;1238;-74
2023/04/01 00:32:58;;;;;;;;;;;;;;;22.57;25.13;97076.16;4978482;28;1974;-74
2023/04/01 00:35:23;;;;;;;;;;;;;;;22.50;25.19;97082.16;4962503;28;1191;-74
2023/04/01 00:37:49;;;;;;;;;;;;;;;22.21;25.37;97083.41;4962482;28;1140;-74
2023/04/01 00:40:22;;;;;;;;;;;;;;;21.81;25.84;97078.63;4962721;28;969;-75
2023/04/01 00:42:48;;;;;;;;;;;;;;;21.75;26.15;97077.66;4962652;28;1262;-74
2023/04/01 00:45:27;;;;;;;;;;;;;;;21.89;25.98;97067.00;4962429;28;1192;-74
2023/04/01 00:47:53;;;;;;;;;;;;;;;21.90;25.93;97051.56;4962508;28;1108;-74
2023/04/01 00:50:19;;;;;;;;;;;;;;;21.94;26.00;97063.53;4962612;28;1510;-75
2023/04/01 00:52:44;;;;;;;;;;;;;;;22.26;25.33;97057.28;4962372;28;1906;-74
2023/04/01 00:55:10;;;;;;;;;;;;;;;22.04;25.40;97045.28;4957756;28;1385;-75
2023/04/01 00:57:36;;;;;;;;;;;;;;;21.80;25.88;97054.38;4957914;28;937;-74
2023/04/01 01:00:02;;;;;;;;;;;;;;;22.20;25.82;97050.69;4916378;29;1342;-75
2023/04/01 01:02:28;;;;;;;;;;;;;;;22.51;25.19;97049.72;4900780;29;1118;-74
2023/04/01 01:04:53;;;;;;;;;;;;;;;22.35;25.57;97054.47;4916577;29;1076;-75
2023/04/01 01:07:34;;;;;;;;;;;;;;;22.50;25.09;97057.44;4920236;29;1121;-75
2023/04/01 01:10:18;;;;;;;;;;;;;;;21.95;25.69;97060.22;4920208;29;988;-74
2023/04/01 01:12:44;;;;;;;;;;;;;;;21.82;26.03;97062.44;4920186;29;1976;-75
2023/04/01 01:15:19;;;;;;;;;;;;;;;22.13;25.65;97058.72;4888795;29;1646;-74
2023/04/01 01:17:56;;;;;;;;;;;;;;;22.28;25.42;97059.66;4920050;29;1056;-74
2023/04/01 01:20:28;;;;;;;;;;;;;;;22.11;25.61;97062.00;4904306;29;1138;-75
2023/04/01 01:23:12;;;;;;;;;;;;;;;22.46;25.35;97058.84;4920027;29;956;-75
2023/04/01 01:25:37;;;;;;;;;;;;;;;22.05;25.73;97041.19;4916064;29;2158;-74
2023/04/01 01:28:15;;;;;;;;;;;;;;;21.73;26.00;97042.59;4958184;29;1561;-74
2023/04/01 01:30:59;;;;;;;;;;;;;;;21.87;25.91;97030.66;4963336;28;1212;-74
2023/04/01 01:33:31;;;;;;;;;;;;;;;22.11;25.75;97028.00;5017480;28;1922;-74
2023/04/01 01:35:57;;;;;;;;;;;;;;;22.05;26.08;97032.69;5017546;28;1167;-75
2023/04/01 01:38:24;;;;;;;;;;;;;;;22.10;25.45;97020.75;5001258;28;1063;-75
2023/04/01 01:41:01;;;;;;;;;;;;;;;21.88;25.96;97039.94;5001336;28;1283;-74
2023/04/01 01:43:32;;;;;;;;;;;;;;;21.80;25.92;97037.38;4993182;28;1182;-74
2023/04/01 01:46:00;;;;;;;;;;;;;;;22.21;25.63;97031.63;4961245;28;1147;-75
2023/04/01 01:48:26;;;;;;;;;;;;;;;22.33;25.57;97034.31;4960956;28;1124;-74
2023/04/01 01:50:52;;;;;;;;;;;;;;;22.26;25.47;97039.50;4961018;28;969;-74
2023/04/01 01:53:19;;;;;;;;;;;;;;;22.24;25.43;97037.16;4961052;28;1999;-74
2023/04/01 01:55:45;;;;;;;;;;;;;;;22.49;24.98;97046.59;4960734;28;979;-74
2023/04/01 01:58:17;;;;;;;;;;;;;;;21.81;25.86;97047.47;4960860;28;1301;-74
2023/04/01 02:00:45;;;;;;;;;;;;;;;21.90;25.79;97045.91;4960877;28;1105;-75
2023/04/01 02:03:11;;;;;;;;;;;;;;;22.31;25.59;97036.03;4944547;28;1193;-75
2023/04/01 02:05:36;;;;;;;;;;;;;;;22.41;25.59;97028.31;4960715;28;1138;-74
2023/04/01 02:08:12;;;;;;;;;;;;;;;22.32;25.47;97026.25;4960597;28;1128;-74
2023/04/01 02:10:39;;;;;;;;;;;;;;;22.59;25.05;97026.25;4960670;28;1262;-74
2023/04/01 02:13:09;;;;;;;;;;;;;;;22.04;25.73;97017.75;4947629;29;1914;-74
2023/04/01 02:15:36;;;;;;;;;;;;;;;21.57;26.15;97018.16;4925593;29;1118;-74
2023/04/01 02:18:02;;;;;;;;;;;;;;;21.97;25.98;97011.63;4940131;29;941;-75
2023/04/01 02:20:27;;;;;;;;;;;;;;;22.25;25.70;97007.53;4919571;29;1062;-75
2023/04/01 02:22:54;;;;;;;;;;;;;;;22.10;25.72;97010.22;4936856;28;1253;-74
2023/04/01 02:25:38;;;;;;;;;;;;;;;22.07;25.82;97007.50;4980693;28;1057;-74
2023/04/01 02:28:04;;;;;;;;;;;;;;;22.05;25.59;96988.16;4980812;28;1304;-75
2023/04/01 02:30:30;;;;;;;;;;;;;;;21.79;26.12;96996.19;4980678;28;1056;-74
2023/04/01 02:32:56;;;;;;;;;;;;;;;22.05;25.73;97001.53;4996995;28;1910;-74
2023/04/01 02:35:21;;;;;;;;;;;;;;;22.57;25.26;97002.47;4980428;28;944;-75
2023/04/01 02:37:48;;;;;;;;;;;;;;;22.43;25.44;96997.44;4980625;28;957;-74
2023/04/01 02:40:14;;;;;;;;;;;;;;;22.23;25.54;96990.25;4980743;28;1261;-75
2023/04/01 02:42:39;;;;;;;;;;;;;;;21.98;25.75;96984.88;4980769;28;1220;-74
2023/04/01 02:45:05;;;;;;;;;;;;;;;21.93;25.69;96985.50;4979274;28;985;-75
2023/04/01 02:47:31;;;;;;;;;;;;;;;21.88;25.91;96980.47;4956576;29;1194;-75
2023/04/01 02:49:58;;;;;;;;;;;;;;;21.82;26.23;96971.81;4972544;28;917;-74
2023/04/01 02:52:29;;;;;;;;;;;;;;;22.33;25.70;96966.31;4940368;29;1888;-74
2023/04/01 02:54:58;;;;;;;;;;;;;;;22.06;25.95;96964.22;4959389;28;1583;-75
2023/04/01 02:57:24;;;;;;;;;;;;;;;22.17;25.76;96958.13;4959515;28;1160;-74
2023/04/01 02:59:50;;;;;;;;;;;;;;;22.40;25.48;96950.22;4943935;28;1079;-74
2023/04/01 03:02:15;;;;;;;;;;;;;;;22.18;25.49;96959.72;4943526;28;1204;-74
2023/04/01 03:04:41;;;;;;;;;;;;;;;21.89;25.88;96957.31;4936990;29;1074;-74
2023/04/01 03:07:08;;;;;;;;;;;;;;;21.93;26.04;96957.19;4921386;29;978;-74
2023/04/01 03:09:34;;;;;;;;;;;;;;;22.30;25.46;96955.91;4890401;29;1326;-75
2023/04/01 03:11:59;;;;;;;;;;;;;;;22.22;25.75;96954.63;4921378;29;1980;-74
2023/04/01 03:14:25;;;;;;;;;;;;;;;22.34;25.38;96950.88;4890045;29;1276;-75
2023/04/01 03:16:51;;;;;;;;;;;;;;;22.22;25.49;96943.31;4937285;29;941;-75
2023/04/01 03:19:17;;;;;;;;;;;;;;;22.06;25.74;96946.44;4886529;29;1353;-74
2023/04/01 03:21:42;;;;;;;;;;;;;;;21.74;25.85;96937.34;4883523;29;1234;-74
2023/04/01 03:24:08;;;;;;;;;;;;;;;22.26;25.67;96932.59;4883416;29;1198;-75
2023/04/01 03:26:33;;;;;;;;;;;;;;;22.28;25.58;96924.44;4913900;29;1046;-75
2023/04/01 03:29:00;;;;;;;;;;;;;;;22.27;25.96;96934.16;4901963;29;1358;-74
2023/04/01 03:31:25;;;;;;;;;;;;;;;22.41;25.48;96931.94;4917702;29;983;-74
2023/04/01 03:33:55;;;;;;;;;;;;;;;22.01;25.98;96928.03;4902609;29;895;-75
2023/04/01 03:36:21;;;;;;;;;;;;;;;21.84;25.92;96919.09;4917040;29;1257;-75
2023/04/01 03:38:47;;;;;;;;;;;;;;;22.12;26.10;96921.13;4936844;29;1027;-74
2023/04/01 03:41:18;;;;;;;;;;;;;;;22.23;25.51;96922.25;4920790;29;990;-74
2023/04/01 03:43:43;;;;;;;;;;;;;;;22.08;25.81;96918.47;4920671;29;1149;-74
2023/04/01 03:46:09;;;;;;;;;;;;;;;22.25;25.85;96924.59;4920468;29;1335;-74
2023/04/01 03:48:35;;;;;;;;;;;;;;;22.28;25.24;96918.75;4901416;29;1244;-74
2023/04/01 03:51:00;;;;;;;;;;;;;;;21.79;26.16;96922.56;4901517;29;1004;-74
2023/04/01 03:53:27;;;;;;;;;;;;;;;21.68;25.99;96922.25;4885786;29;1902;-74
2023/04/01 03:55:56;;;;;;;;;;;;;;;22.22;25.91;96925.53;4908442;29;1140;-75
2023/04/01 03:58:21;;;;;;;;;;;;;;;22.29;25.58;96923.16;4939497;29;1464;-75
2023/04/01 04:00:48;;;;;;;;;;;;;;;22.71;25.13;96933.75;4919865;29;1426;-75
2023/04/01 04:03:14;;;;;;;;;;;;;;;22.19;25.58;96932.16;4936018;29;1124;-75
2023/04/01 04:05:46;;;;;;;;;;;;;;;22.13;25.76;96928.41;4920348;29;1084;-74
2023/04/01 04:08:12;;;;;;;;;;;;;;;21.98;25.61;96933.88;4936065;29;1209;-74
2023/04/01 04:10:37;;;;;;;;;;;;;;;22.01;25.80;96927.25;4920371;29;1172;-74
2023/04/01 04:13:03;;;;;;;;;;;;;;;22.04;25.82;96932.00;4935658;29;1899;-74
2023/04/01 04:15:31;;;;;;;;;;;;;;;22.24;25.63;96929.47;4904444;29;1439;-75
2023/04/01 04:17:57;;;;;;;;;;;;;;;22.34;25.57;96933.84;4920589;29;1213;-74
2023/04/01 04:20:23;;;;;;;;;;;;;;;22.24;25.61;96929.47;4904454;29;1185;-75
2023/04/01 04:22:48;;;;;;;;;;;;;;;21.88;26.33;96923.81;4904671;29;1708;-74
2023/04/01 04:25:14;;;;;;;;;;;;;;;21.81;26.31;96937.03;4939377;29;1396;-74
2023/04/01 04:27:40;;;;;;;;;;;;;;;21.88;26.27;96926.66;4939102;29;1105;-75
2023/04/01 04:30:07;;;;;;;;;;;;;;;21.58;26.42;96923.50;4939021;29;1597;-74
2023/04/01 04:32:33;;;;;;;;;;;;;;;22.25;25.86;96919.69;4968297;28;1902;-74
2023/04/01 04:34:59;;;;;;;;;;;;;;;22.40;25.43;96919.03;4975384;28;1181;-74
2023/04/01 04:37:25;;;;;;;;;;;;;;;22.28;25.86;96913.09;4975473;28;1041;-74
2023/04/01 04:39:52;;;;;;;;;;;;;;;21.97;26.24;96918.16;4958691;28;1236;-75
2023/04/01 04:42:18;;;;;;;;;;;;;;;22.07;25.85;96914.03;4964264;28;1085;-74
2023/04/01 04:44:44;;;;;;;;;;;;;;;22.20;25.75;96916.72;4964221;28;1084;-75
2023/04/01 04:47:10;;;;;;;;;;;;;;;21.81;26.47;96911.56;4948666;28;1120;-74
2023/04/01 04:49:36;;;;;;;;;;;;;;;21.96;26.21;96911.69;4964432;28;1277;-74
2023/04/01 04:52:05;;;;;;;;;;;;;;;22.24;25.90;96909.63;4980595;28;1910;-73
2023/04/01 04:54:31;;;;;;;;;;;;;;;22.10;26.12;96902.56;4964414;28;1166;-74
2023/04/01 04:56:59;;;;;;;;;;;;;;;22.34;25.47;96908.34;4964567;28;1125;-74
2023/04/01 04:59:27;;;;;;;;;;;;;;;22.33;25.52;96903.94;4964582;28;1246;-75
2023/04/01 05:02:02;;;;;;;;;;;;;;;21.91;26.05;96905.88;4965636;28;1323;-75
2023/04/01 05:04:28;;;;;;;;;;;;;;;21.79;26.52;96905.56;4964186;28;1275;-74
2023/04/01 05:06:54;;;;;;;;;;;;;;;22.31;25.51;96855.44;4964149;28;1097;-74
2023/04/01 05:09:19;;;;;;;;;;;;;;;22.28;25.92;96896.09;4964726;28;1121;-74
2023/04/01 05:11:45;;;;;;;;;;;;;;;22.41;25.74;96897.94;4946076;28;1914;-74
2023/04/01 05:14:12;;;;;;;;;;;;;;;22.49;25.46;96893.50;4997901;28;1430;-75
2023/04/01 05:16:37;;;;;;;;;;;;;;;22.00;25.87;96891.69;4981389;28;1162;-74
2023/04/01 05:19:03;;;;;;;;;;;;;;;21.84;26.15;96895.66;4980090;28;1255;-74
2023/04/01 05:21:29;;;;;;;;;;;;;;;21.97;25.95;96884.94;4964447;28;1144;-74
2023/04/01 05:23:56;;;;;;;;;;;;;;;22.48;25.43;96889.09;4944974;29;1185;-75
2023/04/01 05:26:23;;;;;;;;;;;;;;;22.12;26.21;96887.91;4929112;29;1566;-75
2023/04/01 05:28:49;;;;;;;;;;;;;;;22.39;25.37;96883.47;4928911;29;1183;-75
2023/04/01 05:31:14;;;;;;;;;;;;;;;22.26;25.62;96892.94;4929139;29;1247;-75
2023/04/01 05:33:43;;;;;;;;;;;;;;;21.51;25.87;96808.56;4925389;29;1974;-74
2023/04/01 05:36:14;;;;;;;;;;;;;;;22.12;25.51;96875.81;4925766;29;1234;-75
2023/04/01 05:38:42;;;;;;;;;;;;;;;21.70;26.99;96880.09;4925804;29;1230;-74
2023/04/01 05:41:10;;;;;;;;;;;;;;;22.25;26.20;96873.59;4879897;29;1301;-74
2023/04/01 05:43:39;;;;;;;;;;;;;;;22.33;25.90;96881.28;4941501;29;1221;-75
2023/04/01 05:46:23;;;;;;;;;;;;;;;22.52;25.57;96875.53;4941515;29;949;-74
2023/04/01 05:48:55;;;;;;;;;;;;;;;22.18;25.92;96869.03;4883768;29;1432;-74
2023/04/01 05:51:23;;;;;;;;;;;;;;;21.87;26.34;96866.41;4849996;29;1574;-74
2023/04/01 05:53:49;;;;;;;;;;;;;;;21.72;26.72;96877.59;4847710;29;1980;-75
2023/04/01 05:56:14;;;;;;;;;;;;;;;22.66;25.40;96869.19;4847969;29;1107;-75
2023/04/01 05:58:46;;;;;;;;;;;;;;;22.19;26.21;96859.28;4847884;29;1203;-74
2023/04/01 06:01:12;;;;;;;;;;;;;;;22.19;25.89;96850.78;4864047;29;1139;-74
2023/04/01 06:03:38;;;;;;;;;;;;;;;22.00;26.23;96852.03;4887335;29;1460;-75
2023/04/01 06:06:03;;;;;;;;;;;;;;;21.83;26.21;96852.41;4922498;29;1113;-75
2023/04/01 06:08:29;;;;;;;;;;;;;;;21.74;26.54;96852.41;4903449;29;1124;-74
2023/04/01 06:11:01;;;;;;;;;;;;;;;21.92;26.58;96853.66;4887603;29;1221;-74
2023/04/01 06:13:45;;;;;;;;;;;;;;;22.50;25.79;96846.88;4903393;29;1911;-74
2023/04/01 06:16:32;;;;;;;;;;;;;;;22.28;26.12;96847.91;4903568;29;1193;-74
2023/04/01 06:19:04;;;;;;;;;;;;;;;22.16;25.80;96848.09;4903294;29;1191;-74
2023/04/01 06:21:32;;;;;;;;;;;;;;;22.05;25.81;96837.25;4903393;29;1249;-75
2023/04/01 06:24:04;;;;;;;;;;;;;;;22.12;25.73;96842.59;4903290;29;1177;-74
2023/04/01 06:27:02;;;;;;;;;;;;;;;21.97;26.41;96841.69;4937535;28;1133;-74
2023/04/01 06:29:46;;;;;;;;;;;;;;;22.25;25.94;96840.38;4884457;29;1233;-75
2023/04/01 06:32:16;;;;;;;;;;;;;;;22.27;26.12;96843.50;4884306;29;1903;-75
2023/04/01 06:34:48;;;;;;;;;;;;;;;22.61;25.41;96841.47;4884802;29;1282;-75
2023/04/01 06:37:20;;;;;;;;;;;;;;;22.28;25.79;96842.25;4868978;29;1259;-74
2023/04/01 06:39:46;;;;;;;;;;;;;;;21.98;26.02;96826.25;4884170;29;1254;-73
2023/04/01 06:42:30;;;;;;;;;;;;;;;21.88;26.38;96833.97;4900092;29;1027;-75
2023/04/01 06:45:16;;;;;;;;;;;;;;;22.18;26.11;96828.59;4885960;29;1259;-75
2023/04/01 06:48:00;;;;;;;;;;;;;;;22.15;26.50;96824.66;4918505;29;966;-74
2023/04/01 06:50:52;;;;;;;;;;;;;;;22.18;26.02;96823.72;4899560;29;1039;-74
2023/04/01 06:53:54;;;;;;;;;;;;;;;22.17;26.24;96824.16;4899504;29;1903;-75
2023/04/01 06:56:39;;;;;;;;;;;;;;;21.74;26.67;96826.91;4899619;29;1051;-75
2023/04/01 06:59:12;;;;;;;;;;;;;;;21.85;26.64;96829.25;4884732;29;1126;-75
2023/04/01 07:01:42;;;;;;;;;;;;;;;22.27;25.87;96837.81;4883931;29;1247;-74
2023/04/01 07:04:10;;;;;;;;;;;;;;;22.17;25.98;96844.00;4885236;29;1214;-75
2023/04/01 07:06:38;;;;;;;;;;;;;;;22.03;26.44;96834.13;4902481;29;1152;-75
2023/04/01 07:09:09;;;;;;;;;;;;;;;21.99;26.42;96839.16;4902542;29;1063;-75
2023/04/01 07:11:59;;;;;;;;;;;;;;;21.84;26.50;96831.31;4880411;29;1907;-75
2023/04/01 07:14:51;;;;;;;;;;;;;;;21.89;26.42;96834.78;4843184;29;1053;-75
2023/04/01 07:17:21;;;;;;;;;;;;;;;22.35;25.91;96839.06;4843553;29;1230;-74
2023/04/01 07:19:56;;;;;;;;;;;;;;;21.95;26.72;96838.53;4824937;29;1181;-75
2023/04/01 07:22:24;;;;;;;;;;;;;;;22.15;26.42;96835.19;4810144;29;1243;-75
2023/04/01 07:25:13;;;;;;;;;;;;;;;22.11;26.07;96824.03;4825108;29;1191;-75
2023/04/01 07:27:39;;;;;;;;;;;;;;;21.93;26.51;96826.91;4817776;29;1048;-75
2023/04/01 07:30:07;;;;;;;;;;;;;;;21.93;26.71;96826.91;4828057;29;1316;-75
2023/04/01 07:32:37;;;;;;;;;;;;;;;22.12;26.65;96821.97;4828019;29;1986;-75
2023/04/01 07:35:03;;;;;;;;;;;;;;;22.34;25.99;96823.34;4843041;29;969;-74
2023/04/01 07:37:52;;;;;;;;;;;;;;;22.20;26.09;96826.84;4824968;29;1032;-74
2023/04/01 07:40:23;;;;;;;;;;;;;;;21.88;26.50;96821.88;4788599;30;1193;-75
2023/04/01 07:43:05;;;;;;;;;;;;;;;21.85;26.79;96821.53;4821270;29;1477;-75
2023/04/01 07:45:37;;;;;;;;;;;;;;;22.11;26.10;96818.38;4818200;29;1104;-75
2023/04/01 07:48:21;;;;;;;;;;;;;;;21.63;26.95;96809.66;4809669;29;1101;-74
2023/04/01 07:51:02;;;;;;;;;;;;;;;22.40;26.12;96805.69;4825248;29;1393;-76
2023/04/01 07:53:34;;;;;;;;;;;;;;;22.29;26.04;96801.31;4861338;29;1923;-75
2023/04/01 07:56:17;;;;;;;;;;;;;;;22.44;26.16;96790.06;4809475;29;1209;-76
2023/04/01 07:58:44;;;;;;;;;;;;;;;21.98;26.76;96803.59;4809306;29;1233;-76
2023/04/01 08:01:17;;;;;;;;;;;;;;;21.51;27.22;96802.13;4809461;29;1156;-76
2023/04/01 08:04:03;;;;;;;;;;;;;;;21.79;26.95;96792.31;4813770;29;1296;-75
2023/04/01 08:06:30;;;;;;;;;;;;;;;22.49;26.21;96797.13;4806129;29;1242;-75
2023/04/01 08:08:58;;;;;;;;;;;;;;;22.51;25.91;96788.94;4818539;29;1334;-76
2023/04/01 08:11:48;;;;;;;;;;;;;;;22.63;25.42;96796.41;4824352;29;1047;-76
2023/04/01 08:14:40;;;;;;;;;;;;;;;22.06;26.18;96782.94;4823962;29;929;-75
2023/04/01 08:17:24;;;;;;;;;;;;;;;21.71;26.67;96773.28;4863950;29;998;-75
2023/04/01 08:19:56;;;;;;;;;;;;;;;21.76;26.59;96776.28;4879462;29;1077;-75
2023/04/01 08:22:30;;;;;;;;;;;;;;;22.30;26.33;96783.03;4864012;29;1216;-75
2023/04/01 08:25:02;;;;;;;;;;;;;;;22.33;26.53;96767.94;4879535;29;1459;-76
2023/04/01 08:27:31;;;;;;;;;;;;;;;22.41;26.14;96767.56;4854268;29;1298;-75
2023/04/01 08:29:58;;;;;;;;;;;;;;;21.94;26.60;96766.16;4879418;29;1119;-75
2023/04/01 08:32:50;;;;;;;;;;;;;;;21.97;26.59;96765.22;4879124;29;1984;-76
2023/04/01 08:35:32;;;;;;;;;;;;;;;21.96;26.82;96769.28;4863766;29;1319;-75
2023/04/01 08:38:14;;;;;;;;;;;;;;;21.76;26.89;96773.47;4877072;29;1072;-76
2023/04/01 08:40:48;;;;;;;;;;;;;;;22.12;26.83;96780.28;4882381;29;1341;-75
2023/04/01 08:43:29;;;;;;;;;;;;;;;22.14;26.64;96772.09;4879149;29;1174;-76
2023/04/01 08:46:13;;;;;;;;;;;;;;;22.07;26.69;96766.72;4879268;29;1268;-75
2023/04/01 08:48:48;;;;;;;;;;;;;;;22.16;26.64;96758.22;4863794;29;1126;-75
2023/04/01 08:51:26;;;;;;;;;;;;;;;21.99;26.79;96759.84;4860720;29;1199;-76
2023/04/01 08:54:04;;;;;;;;;;;;;;;21.77;27.03;96758.03;4875800;29;1899;-76
2023/04/01 08:56:32;;;;;;;;;;;;;;;21.97;26.90;96759.56;4857342;29;1021;-76
2023/04/01 08:59:07;;;;;;;;;;;;;;;22.46;26.41;96769.75;4857400;29;1217;-76
2023/04/01 09:01:55;;;;;;;;;;;;;;;22.43;26.13;96760.13;4824162;29;1154;-77
2023/04/01 09:04:45;;;;;;;;;;;;;;;22.08;26.69;96762.66;4836071;29;1190;-76
2023/04/01 09:07:29;;;;;;;;;;;;;;;22.06;26.70;96759.50;4823908;29;1353;-76
2023/04/01 09:09:58;;;;;;;;;;;;;;;21.82;26.84;96754.56;4823557;29;1452;-75
2023/04/01 09:12:24;;;;;;;;;;;;;;;21.74;27.31;96761.81;4823722;29;1907;-76
2023/04/01 09:14:58;;;;;;;;;;;;;;;22.10;26.67;96754.44;4852294;29;1253;-76
2023/04/01 09:17:37;;;;;;;;;;;;;;;22.33;26.43;96762.25;4856518;29;1190;-76
2023/04/01 09:20:21;;;;;;;;;;;;;;;22.08;26.59;96762.66;4841926;29;1308;-76
2023/04/01 09:23:05;;;;;;;;;;;;;;;22.16;26.33;96755.38;4863998;29;987;-76
2023/04/01 09:25:46;;;;;;;;;;;;;;;21.94;26.87;96752.00;4927482;29;999;-77
2023/04/01 09:28:18;;;;;;;;;;;;;;;21.75;27.17;96743.56;4935606;29;1159;-77
2023/04/01 09:30:44;;;;;;;;;;;;;;;21.79;27.02;96741.34;4935837;29;1308;-76
2023/04/01 09:33:10;;;;;;;;;;;;;;;22.23;26.49;96742.94;4948138;28;1906;-76
2023/04/01 09:35:56;;;;;;;;;;;;;;;22.21;26.54;96743.41;4983207;28;922;-76
2023/04/01 09:38:23;;;;;;;;;;;;;;;22.52;26.13;96730.97;4978667;28;1173;-76
2023/04/01 09:40:52;;;;;;;;;;;;;;;22.44;26.14;96732.59;4957824;28;1116;-76
2023/04/01 09:43:43;;;;;;;;;;;;;;;22.31;26.24;96730.75;4956549;28;1106;-76
2023/04/01 09:46:09;;;;;;;;;;;;;;;22.00;26.47;96727.44;4961078;28;1081;-76
2023/04/01 09:48:42;;;;;;;;;;;;;;;21.73;27.04;96717.78;4977063;28;1129;-76
2023/04/01 09:51:18;;;;;;;;;;;;;;;21.85;26.79;96719.59;4960914;28;1087;-76
2023/04/01 09:53:57;;;;;;;;;;;;;;;22.56;26.02;96709.66;4941763;29;1902;-76
2023/04/01 09:56:27;;;;;;;;;;;;;;;22.47;25.82;96687.06;4941872;28;1088;-76
2023/04/01 09:59:12;;;;;;;;;;;;;;;22.03;26.53;96675.50;4925984;29;1141;-73
2023/04/01 10:02:24;;;;;;;;;;;;;;;22.14;26.10;96669.31;4900215;29;940;-73
2023/04/01 10:05:09;;;;;;;;;;;;;;;21.82;26.64;96660.34;4884986;29;1299;-73
2023/04/01 10:07:41;;;;;;;;;;;;;;;21.68;27.21;96673.13;4900266;29;1009;-73
2023/04/01 10:10:07;;;;;;;;;;;;;;;22.06;26.59;96666.81;4884993;29;1128;-73
2023/04/01 10:12:51;;;;;;;;;;;;;;;22.26;26.09;96663.41;4885127;29;1966;-74
2023/04/01 10:15:19;;;;;;;;;;;;;;;21.75;27.05;96655.78;4868350;29;2024;-73
2023/04/01 10:18:04;;;;;;;;;;;;;;;22.06;26.17;96657.53;4914359;29;1159;-73
2023/04/01 10:20:36;;;;;;;;;;;;;;;21.94;26.26;96655.72;4919072;29;1258;-74
2023/04/01 10:23:09;;;;;;;;;;;;;;;22.12;26.07;96658.47;4918926;29;1056;-73
2023/04/01 10:25:54;;;;;;;;;;;;;;;22.30;26.32;96661.19;4919200;29;1465;-73
2023/04/01 10:28:24;;;;;;;;;;;;;;;22.18;26.11;96658.59;4844357;29;1146;-73
2023/04/01 10:31:18;;;;;;;;;;;;;;;22.09;26.18;96659.41;4844304;29;994;-74
2023/04/01 10:34:02;;;;;;;;;;;;;;;22.42;25.60;96662.22;4844308;29;1919;-73
2023/04/01 10:36:34;;;;;;;;;;;;;;;22.30;25.73;96652.69;4844385;29;1326;-74
2023/04/01 10:39:18;;;;;;;;;;;;;;;21.83;26.63;96645.69;4864690;29;1273;-73
2023/04/01 10:41:44;;;;;;;;;;;;;;;21.50;27.26;96639.22;4899973;29;1236;-73
2023/04/01 10:44:44;;;;;;;;;;;;;;;22.13;26.40;96633.78;4899737;29;987;-73
2023/04/01 10:47:26;;;;;;;;;;;;;;;22.03;26.38;96635.84;4899959;29;1177;-73
2023/04/01 10:50:05;;;;;;;;;;;;;;;22.11;26.27;96637.06;4899792;29;1115;-73
2023/04/01 10:52:39;;;;;;;;;;;;;;;21.97;26.52;96634.94;4899629;29;1973;-73
2023/04/01 10:55:34;;;;;;;;;;;;;;;21.60;26.71;96615.28;4899371;29;1069;-73
2023/04/01 10:58:50;;;;;;;;;;;;;;;22.06;26.26;96612.97;4918347;29;975;-73
2023/04/01 11:01:51;;;;;;;;;;;;;;;22.41;26.00;96614.53;4918163;29;1013;-73
2023/04/01 11:05:10;;;;;;;;;;;;;;;22.23;26.31;96615.44;4875882;29;1034;-73
2023/04/01 11:07:59;;;;;;;;;;;;;;;22.15;26.03;96600.06;4862277;29;1525;-73
2023/04/01 11:10:43;;;;;;;;;;;;;;;22.27;25.82;96594.13;4880211;29;1520;-73
2023/04/01 11:13:32;;;;;;;;;;;;;;;21.87;26.35;96588.09;4880514;29;1989;-73
2023/04/01 11:16:05;;;;;;;;;;;;;;;21.95;26.19;96584.41;4880420;29;1184;-75
2023/04/01 11:18:49;;;;;;;;;;;;;;;21.75;26.64;96593.50;4877316;29;1222;-73
2023/04/01 11:21:15;;;;;;;;;;;;;;;22.24;25.86;96592.28;4861863;29;1259;-74
2023/04/01 11:23:49;;;;;;;;;;;;;;;22.36;25.77;96596.91;4862005;29;1142;-73
2023/04/01 11:26:34;;;;;;;;;;;;;;;21.96;26.39;96588.81;4861715;29;1178;-73
2023/04/01 11:29:18;;;;;;;;;;;;;;;21.95;26.46;96590.09;4854063;29;961;-74
2023/04/01 11:31:50;;;;;;;;;;;;;;;21.88;26.42;96586.84;4840192;29;1176;-73
2023/04/01 11:34:16;;;;;;;;;;;;;;;21.87;26.38;96588.09;4835930;29;1094;-73
2023/04/01 11:36:47;;;;;;;;;;;;;;;22.34;25.93;96588.13;4804282;29;1211;-73
2023/04/01 11:39:21;;;;;;;;;;;;;;;22.33;26.04;96591.44;4883884;29;1308;-72
2023/04/01 11:42:20;;;;;;;;;;;;;;;22.23;25.90;96587.91;4936765;29;1217;-73
2023/04/01 11:45:13;;;;;;;;;;;;;;;21.96;26.35;96579.53;4954703;29;953;-74
2023/04/01 11:47:45;;;;;;;;;;;;;;;22.08;26.13;96578.53;4924217;29;1291;-73
2023/04/01 11:50:11;;;;;;;;;;;;;;;22.26;26.00;96569.91;4965364;28;1235;-73
2023/04/01 11:53:00;;;;;;;;;;;;;;;22.20;25.98;96569.03;4995122;28;1898;-73
2023/04/01 11:55:46;;;;;;;;;;;;;;;21.95;26.38;96566.66;4996735;28;852;-73
2023/04/01 11:58:12;;;;;;;;;;;;;;;22.32;25.72;96556.63;4995170;28;918;-73
2023/04/01 12:00:43;;;;;;;;;;;;;;;21.89;26.31;96557.25;4996404;28;936;-73
2023/04/01 12:03:09;;;;;;;;;;;;;;;21.85;26.46;96566.69;4996582;28;1114;-73
2023/04/01 12:05:53;;;;;;;;;;;;;;;21.76;26.62;96555.44;5016281;28;1160;-73
2023/04/01 12:08:31;;;;;;;;;;;;;;;21.85;26.53;96558.19;5015913;28;1026;-73
2023/04/01 12:11:09;;;;;;;;;;;;;;;21.88;26.51;96567.81;5014653;28;1015;-73
2023/04/01 12:14:10;;;;;;;;;;;;;;;22.10;26.15;96568.31;5014826;28;1976;-74
2023/04/01 12:16:54;;;;;;;;;;;;;;;22.25;26.06;96559.84;4974618;28;979;-74
2023/04/01 12:19:32;;;;;;;;;;;;;;;22.05;26.39;96542.66;4974350;28;1085;-74
2023/04/01 12:22:03;;;;;;;;;;;;;;;22.04;26.34;96543.94;4942125;28;1319;-74
2023/04/01 12:24:33;;;;;;;;;;;;;;;22.42;25.62;96536.72;4974377;28;950;-74
2023/04/01 12:27:05;;;;;;;;;;;;;;;22.17;26.04;96549.38;4942433;28;1434;-74
2023/04/01 12:29:50;;;;;;;;;;;;;;;22.31;26.03;96549.41;4958297;28;1120;-74
2023/04/01 12:32:18;;;;;;;;;;;;;;;21.99;26.25;96550.25;4958011;28;1906;-75
2023/04/01 12:34:51;;;;;;;;;;;;;;;21.78;26.58;96552.91;4974419;28;905;-74
2023/04/01 12:37:19;;;;;;;;;;;;;;;21.78;26.70;96543.63;4974359;28;1055;-74
2023/04/01 12:39:51;;;;;;;;;;;;;;;22.35;25.72;96547.19;4916735;29;1107;-74
2023/04/01 12:42:37;;;;;;;;;;;;;;;22.39;25.79;96540.56;4901233;29;1023;-74
2023/04/01 12:45:08;;;;;;;;;;;;;;;22.52;25.54;96541.81;4901289;29;1051;-74
2023/04/01 12:47:45;;;;;;;;;;;;;;;22.34;25.90;96542.78;4901523;29;1003;-74
2023/04/01 12:50:23;;;;;;;;;;;;;;;21.57;26.60;96497.38;4913531;29;1236;-74
2023/04/01 12:52:55;;;;;;;;;;;;;;;22.21;25.95;96547.91;4938837;29;1910;-74
2023/04/01 12:55:39;;;;;;;;;;;;;;;22.14;25.96;96545.47;4954865;29;957;-74
2023/04/01 12:58:10;;;;;;;;;;;;;;;22.08;26.36;96536.03;4954749;29;1053;-75
2023/04/01 13:00:54;;;;;;;;;;;;;;;22.08;26.41;96536.03;4955021;28;1206;-74
2023/04/01 13:03:39;;;;;;;;;;;;;;;22.00;26.13;96526.34;4958700;29;1263;-74
2023/04/01 13:06:22;;;;;;;;;;;;;;;21.95;26.16;96512.84;4958538;29;977;-74
2023/04/01 13:09:02;;;;;;;;;;;;;;;21.81;26.54;96501.00;4942423;29;1248;-74
2023/04/01 13:11:27;;;;;;;;;;;;;;;21.72;26.67;96509.53;4989212;28;880;-74
2023/04/01 13:13:53;;;;;;;;;;;;;;;22.17;26.09;96521.03;5019228;28;1906;-74
2023/04/01 13:16:26;;;;;;;;;;;;;;;22.04;26.43;96505.06;5019260;28;865;-74
2023/04/01 13:19:31;;;;;;;;;;;;;;;22.00;26.52;96509.34;5018043;28;974;-74
2023/04/01 13:22:02;;;;;;;;;;;;;;;21.85;26.46;96507.22;4977638;28;1118;-74
2023/04/01 13:24:30;;;;;;;;;;;;;;;21.99;26.49;96513.44;4945607;28;1210;-74
2023/04/01 13:27:05;;;;;;;;;;;;;;;21.94;26.19;96511.28;4919836;29;953;-74
2023/04/01 13:29:39;;;;;;;;;;;;;;;22.23;26.19;96511.41;4882311;29;1211;-74